sensor_id;sensor_type;location;lat;lon;timestamp;P1;durP1;ratioP1;P2;durP2;ratioP2
15814;SDS011;8008;50.024;8.172;2022-12-10T04:01:52;11.80;;;7.70;;
15814;SDS011;8008;50.024;8.172;2022-12-10T04:04:21;11.13;;;7.40;;
15814;SDS011;8008;50.024;8.172;2022-12-10T04:06:49;13.17;;;7.90;;
15814;SDS011;8008;50.024;8.172;2022-12-10T04:09:16;12.80;;;7.57;;
15814;SDS011;8008;50.024;8.172;2022-12-10T04:11:45;12.07;;;7.93;;
15814;SDS011;8008;50.024;8.172;2022-12-10T04:14:14;12.33;;;7.33;;
15814;SDS011;8008;50.024;8.172;2022-12-10T04:17:00;11.13;;;7.13;;
15814;SDS011;8008;50.024;8.172;2022-12-10T04:19:28;12.43;;;7.67;;
15814;SDS011;8008;50.024;8.172;2022-12-10T04:21:56;10.67;;;6.97;;
15814;SDS011;8008;50.024;8.172;2022-12-10T04:24:41;11.00;;;7.60;;
15814;SDS011;8008;50.024;8.172;2022-12-10T04:27:33;9.50;;;6.57;;
15814;SDS011;8008;50.024;8.172;2022-12-10T04:30:04;10.57;;;6.80;;
15814;SDS011;8008;50.024;8.172;2022-12-10T04:32:36;10.60;;;7.17;;
15814;SDS011;8008;50.024;8.172;2022-12-10T04:35:04;10.13;;;6.80;;
15814;SDS011;8008;50.024;8.172;2022-12-10T04:37:32;10.40;;;6.70;;
15814;SDS011;8008;50.024;8.172;2022-12-10T04:40:00;10.73;;;6.93;;
15814;SDS011;8008;50.024;8.172;2022-12-10T04:42:28;10.03;;;6.83;;
15814;SDS011;8008;50.024;8.172;2022-12-10T04:44:56;8.27;;;6.33;;
15814;SDS011;8008;50.024;8.172;2022-12-10T04:47:24;11.13;;;7.03;;
15814;SDS011;8008;50.024;8.172;2022-12-10T04:49:54;9.77;;;6.50;;
15814;SDS011;8008;50.024;8.172;2022-12-10T04:52:22;11.40;;;7.10;;
15814;SDS011;8008;50.024;8.172;2022-12-10T04:54:49;9.67;;;6.47;;
15814;SDS011;8008;50.024;8.172;2022-12-10T04:57:17;10.70;;;6.90;;
15814;SDS011;8008;50.024;8.172;2022-12-10T04:59:45;12.33;;;8.90;;
15814;SDS011;8008;50.024;8.172;2022-12-10T05:02:13;12.30;;;8.33;;
15814;SDS011;8008;50.024;8.172;2022-12-10T05:04:41;12.03;;;7.70;;
15814;SDS011;8008;50.024;8.172;2022-12-10T05:07:10;11.40;;;7.23;;
15814;SDS011;8008;50.024;8.172;2022-12-10T05:09:38;11.53;;;6.90;;
15814;SDS011;8008;50.024;8.172;2022-12-10T05:12:06;11.20;;;7.23;;
15814;SDS011;8008;50.024;8.172;2022-12-10T05:14:34;11.13;;;8.20;;
15814;SDS011;8008;50.024;8.172;2022-12-10T05:17:02;12.17;;;8.47;;
15814;SDS011;8008;50.024;8.172;2022-12-10T05:19:30;16.37;;;10.10;;
15814;SDS011;8008;50.024;8.172;2022-12-10T05:21:58;12.37;;;7.70;;
15814;SDS011;8008;50.024;8.172;2022-12-10T05:24:45;10.93;;;7.13;;
15814;SDS011;8008;50.024;8.172;2022-12-10T05:27:13;10.13;;;6.33;;
15814;SDS011;8008;50.024;8.172;2022-12-10T05:29:41;11.37;;;7.30;;
15814;SDS011;8008;50.024;8.172;2022-12-10T05:32:09;10.37;;;7.03;;
15814;SDS011;8008;50.024;8.172;2022-12-10T05:34:37;10.63;;;6.57;;
15814;SDS011;8008;50.024;8.172;2022-12-10T05:37:05;12.77;;;8.03;;
15814;SDS011;8008;50.024;8.172;2022-12-10T05:39:33;9.80;;;7.10;;
15814;SDS011;8008;50.024;8.172;2022-12-10T05:42:03;8.97;;;6.37;;
15814;SDS011;8008;50.024;8.172;2022-12-10T05:44:36;11.32;;;7.10;;
15814;SDS011;8008;50.024;8.172;2022-12-10T05:47:04;12.30;;;7.50;;
15814;SDS011;8008;50.024;8.172;2022-12-10T05:49:32;12.60;;;7.60;;
15814;SDS011;8008;50.024;8.172;2022-12-10T05:52:00;11.50;;;7.80;;
15814;SDS011;8008;50.024;8.172;2022-12-10T05:54:28;11.63;;;7.40;;
15814;SDS011;8008;50.024;8.172;2022-12-10T05:56:56;11.83;;;7.40;;
15814;SDS011;8008;50.024;8.172;2022-12-10T05:59:25;10.70;;;7.40;;
15814;SDS011;8008;50.024;8.172;2022-12-10T06:01:53;11.10;;;7.10;;
15814;SDS011;8008;50.024;8.172;2022-12-10T06:04:21;11.97;;;7.13;;
15814;SDS011;8008;50.024;8.172;2022-12-10T06:06:49;10.97;;;7.10;;
15814;SDS011;8008;50.024;8.172;2022-12-10T06:09:17;10.47;;;6.73;;
15814;SDS011;8008;50.024;8.172;2022-12-10T06:11:45;10.00;;;6.70;;
15814;SDS011;8008;50.024;8.172;2022-12-10T06:14:14;10.17;;;6.30;;
15814;SDS011;8008;50.024;8.172;2022-12-10T06:16:43;8.67;;;6.47;;
15814;SDS011;8008;50.024;8.172;2022-12-10T06:19:11;9.87;;;6.60;;
15814;SDS011;8008;50.024;8.172;2022-12-10T06:21:39;10.23;;;6.87;;
15814;SDS011;8008;50.024;8.172;2022-12-10T06:24:07;10.37;;;6.57;;
15814;SDS011;8008;50.024;8.172;2022-12-10T06:26:35;10.83;;;6.70;;
15814;SDS011;8008;50.024;8.172;2022-12-10T06:29:03;10.73;;;6.57;;
15814;SDS011;8008;50.024;8.172;2022-12-10T06:31:31;9.47;;;6.40;;
15814;SDS011;8008;50.024;8.172;2022-12-10T06:34:01;11.43;;;6.50;;
15814;SDS011;8008;50.024;8.172;2022-12-10T06:36:29;11.00;;;7.27;;
15814;SDS011;8008;50.024;8.172;2022-12-10T06:38:57;9.67;;;6.33;;
15814;SDS011;8008;50.024;8.172;2022-12-10T06:41:25;10.03;;;6.63;;
15814;SDS011;8008;50.024;8.172;2022-12-10T06:43:52;9.27;;;6.53;;
15814;SDS011;8008;50.024;8.172;2022-12-10T06:46:24;10.30;;;7.13;;
15814;SDS011;8008;50.024;8.172;2022-12-10T06:48:54;12.23;;;8.63;;
15814;SDS011;8008;50.024;8.172;2022-12-10T06:51:25;11.47;;;7.97;;
15814;SDS011;8008;50.024;8.172;2022-12-10T06:53:53;10.33;;;7.23;;
15814;SDS011;8008;50.024;8.172;2022-12-10T06:56:21;11.37;;;7.07;;
15814;SDS011;8008;50.024;8.172;2022-12-10T06:58:51;13.13;;;7.97;;
15814;SDS011;8008;50.024;8.172;2022-12-10T07:01:20;10.20;;;7.20;;
15814;SDS011;8008;50.024;8.172;2022-12-10T07:03:53;11.77;;;7.43;;
15814;SDS011;8008;50.024;8.172;2022-12-10T07:06:23;12.33;;;7.10;;
15814;SDS011;8008;50.024;8.172;2022-12-10T07:08:54;10.33;;;6.77;;
15814;SDS011;8008;50.024;8.172;2022-12-10T07:11:22;11.70;;;7.33;;
15814;SDS011;8008;50.024;8.172;2022-12-10T07:13:51;13.97;;;7.70;;
15814;SDS011;8008;50.024;8.172;2022-12-10T07:16:20;14.10;;;10.20;;
15814;SDS011;8008;50.024;8.172;2022-12-10T07:18:51;20.27;;;13.13;;
15814;SDS011;8008;50.024;8.172;2022-12-10T07:21:20;12.37;;;8.30;;
15814;SDS011;8008;50.024;8.172;2022-12-10T07:23:51;10.10;;;7.33;;
15814;SDS011;8008;50.024;8.172;2022-12-10T07:26:21;11.30;;;7.63;;
15814;SDS011;8008;50.024;8.172;2022-12-10T07:28:50;12.17;;;7.80;;
15814;SDS011;8008;50.024;8.172;2022-12-10T07:31:19;11.40;;;7.97;;
15814;SDS011;8008;50.024;8.172;2022-12-10T07:33:48;17.87;;;10.57;;
15814;SDS011;8008;50.024;8.172;2022-12-10T07:36:16;20.63;;;12.83;;
15814;SDS011;8008;50.024;8.172;2022-12-10T07:38:44;17.97;;;11.33;;
15814;SDS011;8008;50.024;8.172;2022-12-10T07:41:14;12.43;;;8.67;;
15814;SDS011;8008;50.024;8.172;2022-12-10T07:43:42;14.93;;;8.57;;
15814;SDS011;8008;50.024;8.172;2022-12-10T07:46:12;14.33;;;9.67;;
15814;SDS011;8008;50.024;8.172;2022-12-10T07:48:42;15.33;;;9.40;;
15814;SDS011;8008;50.024;8.172;2022-12-10T07:51:11;12.40;;;8.37;;
15814;SDS011;8008;50.024;8.172;2022-12-10T07:53:40;12.10;;;7.47;;
15814;SDS011;8008;50.024;8.172;2022-12-10T07:56:08;13.17;;;7.93;;
15814;SDS011;8008;50.024;8.172;2022-12-10T07:58:40;11.53;;;7.50;;
15814;SDS011;8008;50.024;8.172;2022-12-10T08:01:09;13.30;;;9.27;;
15814;SDS011;8008;50.024;8.172;2022-12-10T08:03:39;11.27;;;7.97;;
15814;SDS011;8008;50.024;8.172;2022-12-10T08:06:08;13.83;;;8.83;;
15814;SDS011;8008;50.024;8.172;2022-12-10T08:08:39;12.30;;;8.30;;
15814;SDS011;8008;50.024;8.172;2022-12-10T08:11:09;13.77;;;8.17;;
15814;SDS011;8008;50.024;8.172;2022-12-10T08:13:39;13.87;;;8.40;;
15814;SDS011;8008;50.024;8.172;2022-12-10T08:16:07;12.00;;;8.13;;
15814;SDS011;8008;50.024;8.172;2022-12-10T08:18:38;13.37;;;8.27;;
15814;SDS011;8008;50.024;8.172;2022-12-10T08:21:06;13.63;;;8.00;;
15814;SDS011;8008;50.024;8.172;2022-12-10T08:23:35;11.93;;;8.37;;
15814;SDS011;8008;50.024;8.172;2022-12-10T08:26:03;13.23;;;8.27;;
15814;SDS011;8008;50.024;8.172;2022-12-10T08:28:33;15.03;;;9.17;;
15814;SDS011;8008;50.024;8.172;2022-12-10T08:31:03;13.13;;;8.13;;
15814;SDS011;8008;50.024;8.172;2022-12-10T08:33:32;14.73;;;8.60;;
15814;SDS011;8008;50.024;8.172;2022-12-10T08:36:00;13.00;;;8.90;;
15814;SDS011;8008;50.024;8.172;2022-12-10T08:38:29;12.73;;;8.33;;
15814;SDS011;8008;50.024;8.172;2022-12-10T08:40:58;15.47;;;9.47;;
15814;SDS011;8008;50.024;8.172;2022-12-10T08:43:26;15.03;;;9.10;;
15814;SDS011;8008;50.024;8.172;2022-12-10T08:45:54;15.23;;;9.27;;
15814;SDS011;8008;50.024;8.172;2022-12-10T08:48:26;13.43;;;9.07;;
15814;SDS011;8008;50.024;8.172;2022-12-10T08:50:54;13.37;;;9.13;;
15814;SDS011;8008;50.024;8.172;2022-12-10T08:53:22;14.83;;;9.70;;
15814;SDS011;8008;50.024;8.172;2022-12-10T08:55:50;17.50;;;10.70;;
15814;SDS011;8008;50.024;8.172;2022-12-10T08:58:19;14.37;;;8.80;;
15814;SDS011;8008;50.024;8.172;2022-12-10T09:00:47;18.30;;;10.70;;
15814;SDS011;8008;50.024;8.172;2022-12-10T09:03:16;14.63;;;9.97;;
15814;SDS011;8008;50.024;8.172;2022-12-10T09:05:45;17.13;;;10.90;;
15814;SDS011;8008;50.024;8.172;2022-12-10T09:08:13;21.97;;;14.70;;
15814;SDS011;8008;50.024;8.172;2022-12-10T09:10:41;27.47;;;16.47;;
15814;SDS011;8008;50.024;8.172;2022-12-10T09:13:09;21.27;;;12.93;;
15814;SDS011;8008;50.024;8.172;2022-12-10T09:15:37;23.20;;;14.83;;
15814;SDS011;8008;50.024;8.172;2022-12-10T09:18:05;18.13;;;11.33;;
15814;SDS011;8008;50.024;8.172;2022-12-10T09:20:33;15.23;;;9.67;;
15814;SDS011;8008;50.024;8.172;2022-12-10T09:23:02;16.40;;;9.83;;
15814;SDS011;8008;50.024;8.172;2022-12-10T09:25:30;15.87;;;9.67;;
15814;SDS011;8008;50.024;8.172;2022-12-10T09:27:58;13.97;;;9.17;;
15814;SDS011;8008;50.024;8.172;2022-12-10T09:30:26;14.57;;;8.90;;
15814;SDS011;8008;50.024;8.172;2022-12-10T09:32:54;13.80;;;8.97;;
15814;SDS011;8008;50.024;8.172;2022-12-10T09:35:22;17.13;;;9.20;;
15814;SDS011;8008;50.024;8.172;2022-12-10T09:37:50;16.47;;;9.67;;
15814;SDS011;8008;50.024;8.172;2022-12-10T09:40:22;15.67;;;9.27;;
15814;SDS011;8008;50.024;8.172;2022-12-10T09:42:57;15.30;;;10.17;;
15814;SDS011;8008;50.024;8.172;2022-12-10T09:45:30;13.43;;;8.80;;
15814;SDS011;8008;50.024;8.172;2022-12-10T09:48:04;15.73;;;9.83;;
15814;SDS011;8008;50.024;8.172;2022-12-10T09:50:44;11.13;;;7.57;;
15814;SDS011;8008;50.024;8.172;2022-12-10T09:53:17;9.33;;;6.13;;
15814;SDS011;8008;50.024;8.172;2022-12-10T09:55:49;9.90;;;6.60;;
15814;SDS011;8008;50.024;8.172;2022-12-10T09:58:18;9.43;;;6.10;;
15814;SDS011;8008;50.024;8.172;2022-12-10T10:00:56;10.93;;;6.37;;
15814;SDS011;8008;50.024;8.172;2022-12-10T10:03:26;10.70;;;6.60;;
15814;SDS011;8008;50.024;8.172;2022-12-10T10:05:57;8.57;;;6.50;;
15814;SDS011;8008;50.024;8.172;2022-12-10T10:08:27;10.50;;;7.10;;
15814;SDS011;8008;50.024;8.172;2022-12-10T10:10:59;14.57;;;8.37;;
15814;SDS011;8008;50.024;8.172;2022-12-10T10:13:30;16.87;;;9.43;;
15814;SDS011;8008;50.024;8.172;2022-12-10T10:16:12;15.47;;;9.63;;
15814;SDS011;8008;50.024;8.172;2022-12-10T10:18:50;13.87;;;8.93;;
15814;SDS011;8008;50.024;8.172;2022-12-10T10:21:24;15.20;;;9.90;;
15814;SDS011;8008;50.024;8.172;2022-12-10T10:23:54;14.77;;;9.57;;
15814;SDS011;8008;50.024;8.172;2022-12-10T10:26:25;18.53;;;10.77;;
15814;SDS011;8008;50.024;8.172;2022-12-10T10:28:55;16.43;;;9.50;;
15814;SDS011;8008;50.024;8.172;2022-12-10T10:31:27;13.67;;;8.80;;
15814;SDS011;8008;50.024;8.172;2022-12-10T10:33:57;14.97;;;9.43;;
15814;SDS011;8008;50.024;8.172;2022-12-10T10:36:28;16.53;;;9.47;;
15814;SDS011;8008;50.024;8.172;2022-12-10T10:38:59;14.70;;;9.20;;
15814;SDS011;8008;50.024;8.172;2022-12-10T10:41:37;14.47;;;9.00;;
15814;SDS011;8008;50.024;8.172;2022-12-10T10:44:12;16.17;;;9.23;;
15814;SDS011;8008;50.024;8.172;2022-12-10T10:46:42;15.20;;;9.90;;
15814;SDS011;8008;50.024;8.172;2022-12-10T10:49:15;15.03;;;9.30;;
15814;SDS011;8008;50.024;8.172;2022-12-10T10:51:49;14.57;;;9.30;;
15814;SDS011;8008;50.024;8.172;2022-12-10T10:54:33;14.77;;;8.73;;
15814;SDS011;8008;50.024;8.172;2022-12-10T10:57:10;14.13;;;9.13;;
15814;SDS011;8008;50.024;8.172;2022-12-10T10:59:41;11.77;;;6.30;;
15814;SDS011;8008;50.024;8.172;2022-12-10T11:02:16;9.50;;;6.20;;
15814;SDS011;8008;50.024;8.172;2022-12-10T11:04:48;6.73;;;5.10;;
15814;SDS011;8008;50.024;8.172;2022-12-10T11:07:22;7.60;;;5.17;;
15814;SDS011;8008;50.024;8.172;2022-12-10T11:09:53;6.30;;;4.63;;
15814;SDS011;8008;50.024;8.172;2022-12-10T11:12:27;6.97;;;4.77;;
15814;SDS011;8008;50.024;8.172;2022-12-10T11:15:26;7.03;;;4.80;;
15814;SDS011;8008;50.024;8.172;2022-12-10T11:17:57;6.77;;;4.53;;
15814;SDS011;8008;50.024;8.172;2022-12-10T11:20:27;7.70;;;5.00;;
15814;SDS011;8008;50.024;8.172;2022-12-10T11:22:57;6.90;;;4.70;;
15814;SDS011;8008;50.024;8.172;2022-12-10T11:25:32;6.70;;;4.53;;
15814;SDS011;8008;50.024;8.172;2022-12-10T11:28:16;6.87;;;5.13;;
15814;SDS011;8008;50.024;8.172;2022-12-10T11:30:58;7.67;;;5.30;;
15814;SDS011;8008;50.024;8.172;2022-12-10T11:33:40;6.03;;;4.37;;
15814;SDS011;8008;50.024;8.172;2022-12-10T11:36:18;9.80;;;5.77;;
15814;SDS011;8008;50.024;8.172;2022-12-10T11:38:59;6.40;;;4.17;;
15814;SDS011;8008;50.024;8.172;2022-12-10T11:41:38;5.37;;;3.97;;
15814;SDS011;8008;50.024;8.172;2022-12-10T11:44:19;6.90;;;4.77;;
15814;SDS011;8008;50.024;8.172;2022-12-10T11:47:00;7.87;;;4.80;;
15814;SDS011;8008;50.024;8.172;2022-12-10T11:49:42;7.77;;;5.03;;
15814;SDS011;8008;50.024;8.172;2022-12-10T11:52:25;6.00;;;4.40;;
15814;SDS011;8008;50.024;8.172;2022-12-10T11:55:05;6.73;;;4.50;;
15814;SDS011;8008;50.024;8.172;2022-12-10T11:57:46;6.50;;;4.50;;
15814;SDS011;8008;50.024;8.172;2022-12-10T12:00:20;9.43;;;5.13;;
15814;SDS011;8008;50.024;8.172;2022-12-10T12:02:54;5.73;;;4.10;;
15814;SDS011;8008;50.024;8.172;2022-12-10T12:05:48;7.47;;;4.90;;
15814;SDS011;8008;50.024;8.172;2022-12-10T12:08:34;5.40;;;4.30;;
15814;SDS011;8008;50.024;8.172;2022-12-10T12:11:15;6.37;;;4.60;;
15814;SDS011;8008;50.024;8.172;2022-12-10T12:13:57;6.27;;;4.30;;
15814;SDS011;8008;50.024;8.172;2022-12-10T12:16:31;6.43;;;4.13;;
15814;SDS011;8008;50.024;8.172;2022-12-10T12:19:03;6.53;;;4.50;;
15814;SDS011;8008;50.024;8.172;2022-12-10T12:21:36;6.20;;;4.07;;
15814;SDS011;8008;50.024;8.172;2022-12-10T12:24:07;5.73;;;4.13;;
15814;SDS011;8008;50.024;8.172;2022-12-10T12:26:40;5.80;;;4.20;;
15814;SDS011;8008;50.024;8.172;2022-12-10T12:29:13;5.87;;;3.97;;
15814;SDS011;8008;50.024;8.172;2022-12-10T12:31:47;5.77;;;4.80;;
15814;SDS011;8008;50.024;8.172;2022-12-10T12:34:24;7.30;;;4.87;;
15814;SDS011;8008;50.024;8.172;2022-12-10T12:36:56;6.83;;;4.80;;
15814;SDS011;8008;50.024;8.172;2022-12-10T12:39:27;7.20;;;5.20;;
15814;SDS011;8008;50.024;8.172;2022-12-10T12:41:59;6.43;;;4.90;;
15814;SDS011;8008;50.024;8.172;2022-12-10T12:44:34;7.23;;;4.73;;
15814;SDS011;8008;50.024;8.172;2022-12-10T12:47:15;6.13;;;4.83;;
15814;SDS011;8008;50.024;8.172;2022-12-10T12:49:49;8.33;;;5.17;;
15814;SDS011;8008;50.024;8.172;2022-12-10T12:52:24;5.80;;;4.47;;
15814;SDS011;8008;50.024;8.172;2022-12-10T12:54:59;6.60;;;4.70;;
15814;SDS011;8008;50.024;8.172;2022-12-10T12:57:32;6.83;;;4.50;;
15814;SDS011;8008;50.024;8.172;2022-12-10T13:00:10;8.00;;;5.20;;
15814;SDS011;8008;50.024;8.172;2022-12-10T13:02:47;7.37;;;4.93;;
15814;SDS011;8008;50.024;8.172;2022-12-10T13:05:28;6.67;;;5.03;;
15814;SDS011;8008;50.024;8.172;2022-12-10T13:11:00;15.77;;;7.13;;
15814;SDS011;8008;50.024;8.172;2022-12-10T13:16:59;6.20;;;4.83;;
15814;SDS011;8008;50.024;8.172;2022-12-10T13:19:49;7.77;;;5.13;;
15814;SDS011;8008;50.024;8.172;2022-12-10T13:25:13;13.33;;;6.13;;
15814;SDS011;8008;50.024;8.172;2022-12-10T13:27:53;6.63;;;4.80;;
15814;SDS011;8008;50.024;8.172;2022-12-10T13:33:16;10.93;;;5.60;;
15814;SDS011;8008;50.024;8.172;2022-12-10T13:35:51;7.77;;;5.10;;
15814;SDS011;8008;50.024;8.172;2022-12-10T13:38:34;7.47;;;4.80;;
15814;SDS011;8008;50.024;8.172;2022-12-10T13:41:07;8.50;;;5.37;;
15814;SDS011;8008;50.024;8.172;2022-12-10T13:43:54;10.37;;;5.60;;
15814;SDS011;8008;50.024;8.172;2022-12-10T13:46:52;14.20;;;5.77;;
15814;SDS011;8008;50.024;8.172;2022-12-10T13:49:23;10.53;;;5.53;;
15814;SDS011;8008;50.024;8.172;2022-12-10T13:52:01;10.30;;;6.20;;
15814;SDS011;8008;50.024;8.172;2022-12-10T13:57:51;10.63;;;5.53;;
15814;SDS011;8008;50.024;8.172;2022-12-10T14:00:29;8.67;;;5.57;;
15814;SDS011;8008;50.024;8.172;2022-12-10T14:06:06;7.70;;;5.23;;
15814;SDS011;8008;50.024;8.172;2022-12-10T14:08:45;28.43;;;10.27;;
15814;SDS011;8008;50.024;8.172;2022-12-10T14:11:26;24.00;;;12.50;;
15814;SDS011;8008;50.024;8.172;2022-12-10T14:14:04;12.33;;;7.50;;
15814;SDS011;8008;50.024;8.172;2022-12-10T14:16:33;29.53;;;16.50;;
15814;SDS011;8008;50.024;8.172;2022-12-10T14:19:03;15.63;;;9.30;;
15814;SDS011;8008;50.024;8.172;2022-12-10T14:21:34;10.63;;;6.90;;
15814;SDS011;8008;50.024;8.172;2022-12-10T14:24:11;10.93;;;6.17;;
15814;SDS011;8008;50.024;8.172;2022-12-10T14:26:56;9.70;;;5.80;;
15814;SDS011;8008;50.024;8.172;2022-12-10T14:29:25;10.43;;;6.17;;
15814;SDS011;8008;50.024;8.172;2022-12-10T14:31:55;10.10;;;6.87;;
15814;SDS011;8008;50.024;8.172;2022-12-10T14:34:24;9.10;;;6.03;;
15814;SDS011;8008;50.024;8.172;2022-12-10T14:36:55;10.97;;;6.80;;
15814;SDS011;8008;50.024;8.172;2022-12-10T14:39:27;10.10;;;6.63;;
15814;SDS011;8008;50.024;8.172;2022-12-10T14:41:57;11.00;;;7.10;;
15814;SDS011;8008;50.024;8.172;2022-12-10T14:44:27;9.93;;;6.27;;
15814;SDS011;8008;50.024;8.172;2022-12-10T14:47:04;10.60;;;6.80;;
15814;SDS011;8008;50.024;8.172;2022-12-10T14:49:38;11.73;;;6.90;;
15814;SDS011;8008;50.024;8.172;2022-12-10T14:52:10;9.50;;;6.30;;
15814;SDS011;8008;50.024;8.172;2022-12-10T14:54:41;10.93;;;7.13;;
15814;SDS011;8008;50.024;8.172;2022-12-10T14:57:12;12.53;;;6.77;;
15814;SDS011;8008;50.024;8.172;2022-12-10T14:59:45;12.97;;;6.73;;
15814;SDS011;8008;50.024;8.172;2022-12-10T15:02:18;11.80;;;7.20;;
15814;SDS011;8008;50.024;8.172;2022-12-10T15:04:50;11.87;;;7.43;;
15814;SDS011;8008;50.024;8.172;2022-12-10T15:07:19;21.40;;;10.60;;
15814;SDS011;8008;50.024;8.172;2022-12-10T15:09:52;32.97;;;15.40;;
15814;SDS011;8008;50.024;8.172;2022-12-10T15:12:31;28.03;;;12.33;;
15814;SDS011;8008;50.024;8.172;2022-12-10T15:15:05;14.10;;;7.87;;
15814;SDS011;8008;50.024;8.172;2022-12-10T15:17:39;15.47;;;7.70;;
15814;SDS011;8008;50.024;8.172;2022-12-10T15:20:09;11.40;;;6.77;;
15814;SDS011;8008;50.024;8.172;2022-12-10T15:22:49;21.03;;;9.87;;
15814;SDS011;8008;50.024;8.172;2022-12-10T15:25:21;16.97;;;9.40;;
15814;SDS011;8008;50.024;8.172;2022-12-10T15:27:52;15.67;;;9.43;;
15814;SDS011;8008;50.024;8.172;2022-12-10T15:30:25;12.07;;;8.00;;
15814;SDS011;8008;50.024;8.172;2022-12-10T15:33:01;11.40;;;7.67;;
15814;SDS011;8008;50.024;8.172;2022-12-10T15:35:29;12.80;;;8.50;;
15814;SDS011;8008;50.024;8.172;2022-12-10T15:37:57;13.67;;;8.10;;
15814;SDS011;8008;50.024;8.172;2022-12-10T15:40:29;11.37;;;7.27;;
15814;SDS011;8008;50.024;8.172;2022-12-10T15:43:10;11.60;;;7.80;;
15814;SDS011;8008;50.024;8.172;2022-12-10T15:45:40;13.33;;;8.50;;
15814;SDS011;8008;50.024;8.172;2022-12-10T15:48:11;10.20;;;7.23;;
15814;SDS011;8008;50.024;8.172;2022-12-10T15:50:40;13.07;;;8.00;;
15814;SDS011;8008;50.024;8.172;2022-12-10T15:53:10;12.90;;;7.70;;
15814;SDS011;8008;50.024;8.172;2022-12-10T15:55:40;13.37;;;8.90;;
15814;SDS011;8008;50.024;8.172;2022-12-10T15:58:09;14.37;;;8.47;;
15814;SDS011;8008;50.024;8.172;2022-12-10T16:00:38;14.83;;;9.23;;
15814;SDS011;8008;50.024;8.172;2022-12-10T16:03:11;15.60;;;9.50;;
15814;SDS011;8008;50.024;8.172;2022-12-10T16:05:41;19.47;;;11.07;;
15814;SDS011;8008;50.024;8.172;2022-12-10T16:08:12;15.23;;;9.50;;
15814;SDS011;8008;50.024;8.172;2022-12-10T16:10:45;16.50;;;9.20;;
15814;SDS011;8008;50.024;8.172;2022-12-10T16:13:15;21.00;;;12.87;;
15814;SDS011;8008;50.024;8.172;2022-12-10T16:15:45;22.40;;;12.70;;
15814;SDS011;8008;50.024;8.172;2022-12-10T16:18:16;16.87;;;11.07;;
15814;SDS011;8008;50.024;8.172;2022-12-10T16:20:45;14.23;;;8.70;;
15814;SDS011;8008;50.024;8.172;2022-12-10T16:23:13;19.77;;;10.67;;
15814;SDS011;8008;50.024;8.172;2022-12-10T16:25:41;15.43;;;9.57;;
15814;SDS011;8008;50.024;8.172;2022-12-10T16:28:14;17.17;;;9.70;;
15814;SDS011;8008;50.024;8.172;2022-12-10T16:30:44;18.70;;;9.93;;
15814;SDS011;8008;50.024;8.172;2022-12-10T16:33:15;34.23;;;13.53;;
15814;SDS011;8008;50.024;8.172;2022-12-10T16:35:44;22.70;;;11.47;;
15814;SDS011;8008;50.024;8.172;2022-12-10T16:38:12;45.63;;;17.43;;
15814;SDS011;8008;50.024;8.172;2022-12-10T16:40:41;44.67;;;19.17;;
15814;SDS011;8008;50.024;8.172;2022-12-10T16:43:11;43.87;;;19.07;;
15814;SDS011;8008;50.024;8.172;2022-12-10T16:45:43;22.33;;;12.70;;
15814;SDS011;8008;50.024;8.172;2022-12-10T16:48:11;15.73;;;10.03;;
15814;SDS011;8008;50.024;8.172;2022-12-10T16:50:39;17.57;;;10.37;;
15814;SDS011;8008;50.024;8.172;2022-12-10T16:53:12;16.10;;;9.80;;
15814;SDS011;8008;50.024;8.172;2022-12-10T16:55:43;16.80;;;10.57;;
15814;SDS011;8008;50.024;8.172;2022-12-10T16:58:11;15.07;;;9.83;;
15814;SDS011;8008;50.024;8.172;2022-12-10T17:00:42;14.73;;;9.60;;
15814;SDS011;8008;50.024;8.172;2022-12-10T17:03:13;32.93;;;16.33;;
15814;SDS011;8008;50.024;8.172;2022-12-10T17:05:50;15.33;;;9.70;;
15814;SDS011;8008;50.024;8.172;2022-12-10T17:08:19;16.33;;;9.73;;
15814;SDS011;8008;50.024;8.172;2022-12-10T17:10:48;14.37;;;8.97;;
15814;SDS011;8008;50.024;8.172;2022-12-10T17:13:34;18.47;;;10.30;;
15814;SDS011;8008;50.024;8.172;2022-12-10T17:16:03;17.53;;;10.47;;
15814;SDS011;8008;50.024;8.172;2022-12-10T17:18:32;16.77;;;10.53;;
15814;SDS011;8008;50.024;8.172;2022-12-10T17:21:01;16.60;;;10.53;;
15814;SDS011;8008;50.024;8.172;2022-12-10T17:23:29;16.00;;;10.17;;
15814;SDS011;8008;50.024;8.172;2022-12-10T17:25:57;17.23;;;10.93;;
15814;SDS011;8008;50.024;8.172;2022-12-10T17:28:27;18.00;;;11.07;;
15814;SDS011;8008;50.024;8.172;2022-12-10T17:30:55;17.87;;;11.17;;
15814;SDS011;8008;50.024;8.172;2022-12-10T17:33:24;18.03;;;11.23;;
15814;SDS011;8008;50.024;8.172;2022-12-10T17:35:52;20.00;;;12.17;;
15814;SDS011;8008;50.024;8.172;2022-12-10T17:38:22;24.63;;;13.90;;
15814;SDS011;8008;50.024;8.172;2022-12-10T17:40:51;26.23;;;14.13;;
15814;SDS011;8008;50.024;8.172;2022-12-10T17:43:20;24.93;;;13.73;;
15814;SDS011;8008;50.024;8.172;2022-12-10T17:45:48;23.83;;;13.60;;
15814;SDS011;8008;50.024;8.172;2022-12-10T17:48:17;21.57;;;12.93;;
15814;SDS011;8008;50.024;8.172;2022-12-10T17:50:46;22.63;;;14.17;;
15814;SDS011;8008;50.024;8.172;2022-12-10T17:53:15;23.27;;;14.03;;
15814;SDS011;8008;50.024;8.172;2022-12-10T17:55:44;21.77;;;13.43;;
15814;SDS011;8008;50.024;8.172;2022-12-10T17:58:17;21.07;;;12.70;;
15814;SDS011;8008;50.024;8.172;2022-12-10T18:00:49;22.03;;;12.67;;
15814;SDS011;8008;50.024;8.172;2022-12-10T18:03:18;29.43;;;15.60;;
15814;SDS011;8008;50.024;8.172;2022-12-10T18:05:48;26.53;;;14.37;;
15814;SDS011;8008;50.024;8.172;2022-12-10T18:08:16;36.13;;;18.70;;
15814;SDS011;8008;50.024;8.172;2022-12-10T18:10:49;36.37;;;18.73;;
15814;SDS011;8008;50.024;8.172;2022-12-10T18:13:18;24.47;;;14.07;;
15814;SDS011;8008;50.024;8.172;2022-12-10T18:15:47;25.43;;;14.70;;
15814;SDS011;8008;50.024;8.172;2022-12-10T18:18:15;20.60;;;12.10;;
15814;SDS011;8008;50.024;8.172;2022-12-10T18:20:43;20.63;;;12.17;;
15814;SDS011;8008;50.024;8.172;2022-12-10T18:23:13;19.57;;;11.60;;
15814;SDS011;8008;50.024;8.172;2022-12-10T18:25:42;21.23;;;12.20;;
15814;SDS011;8008;50.024;8.172;2022-12-10T18:31:26;20.27;;;11.93;;
15814;SDS011;8008;50.024;8.172;2022-12-10T18:33:57;18.83;;;11.67;;
15814;SDS011;8008;50.024;8.172;2022-12-10T18:36:29;21.70;;;11.63;;
15814;SDS011;8008;50.024;8.172;2022-12-10T18:39:01;22.47;;;13.43;;
15814;SDS011;8008;50.024;8.172;2022-12-10T18:41:31;20.83;;;12.77;;
15814;SDS011;8008;50.024;8.172;2022-12-10T18:44:01;21.73;;;14.00;;
15814;SDS011;8008;50.024;8.172;2022-12-10T18:46:29;28.23;;;16.30;;
15814;SDS011;8008;50.024;8.172;2022-12-10T18:49:01;29.10;;;16.90;;
15814;SDS011;8008;50.024;8.172;2022-12-10T18:51:29;27.13;;;16.37;;
15814;SDS011;8008;50.024;8.172;2022-12-10T18:53:59;25.60;;;15.30;;
15814;SDS011;8008;50.024;8.172;2022-12-10T18:56:27;36.28;;;22.70;;
15814;SDS011;8008;50.024;8.172;2022-12-10T18:58:57;24.83;;;15.00;;
15814;SDS011;8008;50.024;8.172;2022-12-10T19:01:26;29.40;;;16.93;;
15814;SDS011;8008;50.024;8.172;2022-12-10T19:03:56;27.37;;;15.97;;
15814;SDS011;8008;50.024;8.172;2022-12-10T19:06:25;37.08;;;21.20;;
15814;SDS011;8008;50.024;8.172;2022-12-10T19:08:54;39.07;;;19.63;;
15814;SDS011;8008;50.024;8.172;2022-12-10T19:11:44;32.42;;;20.50;;
15814;SDS011;8008;50.024;8.172;2022-12-10T19:14:14;38.00;;;19.63;;
15814;SDS011;8008;50.024;8.172;2022-12-10T19:16:43;40.77;;;20.03;;
15814;SDS011;8008;50.024;8.172;2022-12-10T19:19:11;33.53;;;17.20;;
15814;SDS011;8008;50.024;8.172;2022-12-10T19:21:40;32.63;;;17.60;;
15814;SDS011;8008;50.024;8.172;2022-12-10T19:24:08;37.23;;;17.70;;
15814;SDS011;8008;50.024;8.172;2022-12-10T19:26:38;28.80;;;15.13;;
15814;SDS011;8008;50.024;8.172;2022-12-10T19:29:11;24.40;;;14.20;;
15814;SDS011;8008;50.024;8.172;2022-12-10T19:31:40;24.10;;;13.50;;
15814;SDS011;8008;50.024;8.172;2022-12-10T19:34:09;25.13;;;13.50;;
15814;SDS011;8008;50.024;8.172;2022-12-10T19:36:37;25.07;;;13.27;;